Time;durP1;ratioP1;P1;durP2;ratioP2;P2;SDS_P1;SDS_P2;PMS_P1;PMS_P2;Temp;Humidity;BMP_temperature;BMP_pressure;BME280_temperature;BME280_humidity;BME280_pressure;Samples;Min_cycle;Max_cycle;Signal;HPM_P1;HPM_P2
2023/07/30 00:00:37;;;;;;;6.82;2.58;;;;;;;15.77;100.00;100929.78;5069425;28;20307;-37
2023/07/30 00:03:02;;;;;;;;;;;;;;;15.91;100.00;100923.59;5070169;28;20033;-36
2023/07/30 00:05:28;;;;;;;6.93;3.25;;;;;;;15.87;100.00;100927.13;5069662;28;19947;-37
2023/07/30 00:07:54;;;;;;;;;;;;;;;15.94;100.00;100922.22;5070615;28;20108;-37
2023/07/30 00:10:20;;;;;;;7.82;2.75;;;;;;;15.85;100.00;100926.53;5061834;28;20028;-37
2023/07/30 00:12:45;;;;;;;;;;;;;;;15.93;100.00;100923.31;5056853;28;20056;-36
2023/07/30 00:15:10;;;;;;;5.77;2.50;;;;;;;15.84;100.00;100925.72;5056601;28;20240;-37
2023/07/30 00:17:36;;;;;;;7.70;2.40;;;;;;;15.80;100.00;100921.06;5055916;28;20647;-37
2023/07/30 00:20:02;;;;;;;;;;;;;;;15.90;100.00;100926.56;5056340;28;20021;-37
2023/07/30 00:22:27;;;;;;;4.95;2.00;;;;;;;15.80;100.00;100921.06;5056454;28;20242;-37
2023/07/30 00:24:52;;;;;;;4.15;2.08;;;;;;;15.70;100.00;100913.66;5055817;28;20112;-36
2023/07/30 00:27:17;;;;;;;;;;;;;;;15.82;100.00;100922.47;5056805;28;20045;-37
2023/07/30 00:29:43;;;;;;;6.83;2.13;;;;;;;15.73;100.00;100931.41;5055783;28;20349;-37
2023/07/30 00:32:09;;;;;;;4.72;2.00;;;;;;;15.69;100.00;100921.00;5056060;28;20731;-37
2023/07/30 00:34:34;;;;;;;;;;;;;;;15.80;100.00;100934.69;5056369;28;20423;-37
2023/07/30 00:36:59;;;;;;;5.13;2.50;;;;;;;15.67;100.00;100934.09;5055949;28;19912;-37
2023/07/30 00:39:24;;;;;;;;;;;;;;;15.78;100.00;100928.69;5056255;28;20291;-37
2023/07/30 00:41:50;;;;;;;4.63;1.97;;;;;;;15.68;100.00;100937.63;5055532;28;19915;-36
2023/07/30 00:44:16;;;;;;;5.60;2.10;;;;;;;15.61;100.00;100929.63;5055755;28;20342;-37
2023/07/30 00:46:42;;;;;;;;;;;;;;;15.70;100.00;100928.09;5056482;28;20021;-37
2023/07/30 00:49:08;;;;;;;8.43;2.47;;;;;;;15.60;100.00;100925.28;5055396;28;19909;-36
2023/07/30 00:51:33;;;;;;;;;;;;;;;15.70;100.00;100922.63;5056593;28;20078;-37
2023/07/30 00:53:59;;;;;;;7.60;1.83;;;;;;;15.60;100.00;100929.91;5056074;28;19989;-36
2023/07/30 00:56:25;;;;;;;5.63;2.22;;;;;;;15.50;100.00;100933.38;5055554;28;20049;-36
2023/07/30 00:58:51;;;;;;;;;;;;;;;15.59;100.00;100941.91;5056052;28;20045;-37
2023/07/30 01:01:17;;;;;;;5.63;2.60;;;;;;;15.45;100.00;100939.59;5055148;28;19947;-37
2023/07/30 01:03:42;;;;;;;4.47;1.88;;;;;;;15.45;100.00;100942.34;5055399;28;20094;-37
2023/07/30 01:06:08;;;;;;;;;;;;;;;15.51;100.00;100951.38;5056654;28;20357;-37
2023/07/30 01:08:34;;;;;;;5.35;1.90;;;;;;;15.39;100.00;100957.00;5055320;28;19908;-37
2023/07/30 01:10:59;;;;;;;;;;;;;;;15.51;100.00;100950.53;5056043;28;20025;-37
2023/07/30 01:13:26;;;;;;;4.75;1.95;;;;;;;15.39;100.00;100959.72;5055167;28;19909;-36
2023/07/30 01:15:51;;;;;;;6.90;2.00;;;;;;;15.39;100.00;100964.38;5055762;28;20070;-36
2023/07/30 01:18:16;;;;;;;5.80;2.10;;;;;;;15.40;100.00;100963.28;5055644;28;20025;-36
2023/07/30 01:20:42;;;;;;;;;;;;;;;15.49;100.00;100964.44;5055700;28;20540;-37
2023/07/30 01:23:07;;;;;;;7.90;1.87;;;;;;;15.28;100.00;100966.19;5054385;28;19912;-37
2023/07/30 01:25:36;;;;;;;5.32;2.40;;;;;;;15.32;100.00;100963.75;5054963;28;20619;-36
2023/07/30 01:28:04;;;;;;;6.85;2.22;;;;;;;15.24;100.00;100962.34;5055511;28;20369;-37
2023/07/30 01:30:39;;;;;;;5.85;2.25;;;;;;;15.29;100.00;100970.53;5055401;28;20021;-37
2023/07/30 01:33:06;;;;;;;8.07;2.00;;;;;;;15.20;100.00;100956.56;5054795;28;20457;-36
2023/07/30 01:35:32;;;;;;;5.75;2.13;;;;;;;15.15;100.00;100980.22;5054501;28;20028;-36
2023/07/30 01:37:57;;;;;;;;;;;;;;;15.28;100.00;100985.25;5055473;28;20021;-37
2023/07/30 01:40:23;;;;;;;5.95;2.38;;;;;;;15.14;100.00;100984.03;5054647;28;19913;-37
2023/07/30 01:42:49;;;;;;;;;;;;;;;15.23;100.00;100985.22;5055414;28;20033;-37
2023/07/30 01:45:14;;;;;;;5.97;2.38;;;;;;;15.09;100.00;100976.63;5054276;28;19955;-37
2023/07/30 01:47:39;;;;;;;;;;;;;;;15.24;100.00;100988.75;5055373;28;20031;-37
2023/07/30 01:50:05;;;;;;;5.07;2.20;;;;;;;15.15;100.00;100980.22;5054473;28;20264;-36
2023/07/30 01:52:30;;;;;;;4.20;1.98;;;;;;;15.12;100.00;100986.19;5055010;28;20595;-36
2023/07/30 01:54:58;;;;;;;;;;;;;;;15.22;100.00;100985.44;5054817;28;20017;-37
2023/07/30 01:57:23;;;;;;;6.65;2.50;;;;;;;15.07;100.00;100978.78;5054646;28;19912;-37
2023/07/30 01:59:48;;;;;;;10.32;2.88;;;;;;;15.14;100.00;100984.84;5055201;28;20069;-36
2023/07/30 02:02:14;;;;;;;;;;;;;;;15.20;100.00;100981.09;5054728;28;20025;-37
2023/07/30 02:04:39;;;;;;;5.03;1.93;;;;;;;15.02;100.00;100981.44;5053903;28;19908;-37
2023/07/30 02:07:04;;;;;;;9.27;2.60;;;;;;;15.03;100.00;100987.72;5053937;28;20251;-37
2023/07/30 02:09:30;;;;;;;;;;;;;;;15.16;100.00;100988.13;5054596;28;20053;-36
2023/07/30 02:11:55;;;;;;;5.93;2.00;;;;;;;15.06;100.00;100982.59;5054147;28;19904;-36
2023/07/30 02:14:20;;;;;;;6.57;2.42;;;;;;;15.10;100.00;100994.63;5054103;28;20266;-37
2023/07/30 02:16:45;;;;;;;;;;;;;;;15.16;100.00;100984.59;5055039;28;20025;-36
2023/07/30 02:19:11;;;;;;;6.80;2.30;;;;;;;15.01;100.00;100977.09;5054534;28;19908;-36
2023/07/30 02:21:38;;;;;;;5.80;2.43;;;;;;;15.11;100.00;100970.91;5054609;28;20267;-36
2023/07/30 02:24:04;;;;;;;7.68;2.40;;;;;;;15.10;100.00;100972.81;5054377;28;20750;-36
2023/07/30 02:26:29;;;;;;;9.07;3.03;;;;;;;15.10;100.00;100970.09;5054236;28;20021;-36
2023/07/30 02:28:55;;;;;;;;;;;;;;;15.23;100.00;100976.22;5054277;28;20028;-37
2023/07/30 02:31:20;;;;;;;8.02;3.53;;;;;;;15.03;100.00;100972.22;5054647;28;20237;-36
2023/07/30 02:33:46;;;;;;;;;;;;;;;15.18;100.00;100974.28;5054162;28;20024;-36
2023/07/30 02:36:11;;;;;;;7.20;2.92;;;;;;;15.09;100.00;100968.47;5053759;28;20296;-37
2023/07/30 02:38:36;;;;;;;;;;;;;;;15.17;100.00;100967.16;5054133;28;20079;-37
2023/07/30 02:41:02;;;;;;;7.37;2.80;;;;;;;15.09;100.00;100971.19;5053720;28;19908;-37
2023/07/30 02:43:27;;;;;;;7.07;3.15;;;;;;;14.98;100.00;100953.09;5053887;28;20271;-37
2023/07/30 02:45:52;;;;;;;;;;;;;;;15.15;100.00;100966.59;5054007;28;20031;-36
2023/07/30 02:48:18;;;;;;;9.80;3.40;;;;;;;15.13;100.00;100963.34;5053900;28;19909;-36
2023/07/30 02:50:43;;;;;;;9.10;3.47;;;;;;;15.17;100.00;100961.72;5053630;28;20294;-37
2023/07/30 02:53:08;;;;;;;;;;;;;;;15.23;100.00;100965.31;5053882;28;20032;-37
2023/07/30 02:55:34;;;;;;;8.90;3.20;;;;;;;15.14;100.00;100960.34;5053486;28;19913;-36
2023/07/30 02:57:59;;;;;;;11.35;3.60;;;;;;;15.14;100.00;100956.78;5053628;28;20279;-36
2023/07/30 03:00:24;;;;;;;;;;;;;;;15.23;100.00;100960.69;5053606;28;20027;-36
2023/07/30 03:02:50;;;;;;;5.57;2.97;;;;;;;15.15;100.00;100972.06;5053725;28;19950;-36
2023/07/30 03:05:15;;;;;;;8.90;3.83;;;;;;;15.13;100.00;100966.88;5053693;28;20728;-36
2023/07/30 03:07:40;;;;;;;;;;;;;;;15.19;100.00;100971.28;5054442;28;20020;-36
2023/07/30 03:10:06;;;;;;;17.65;5.53;;;;;;;15.17;100.00;100965.25;5053045;28;19927;-36
2023/07/30 03:12:31;;;;;;;;;;;;;;;15.23;100.00;100971.59;5054658;28;20021;-36
2023/07/30 03:14:57;;;;;;;9.87;3.70;;;;;;;15.22;100.00;100969.09;5053152;28;19905;-36
2023/07/30 03:17:22;;;;;;;10.80;4.03;;;;;;;15.23;100.00;100968.03;5054146;28;20259;-36
2023/07/30 03:19:47;;;;;;;9.45;4.30;;;;;;;15.21;100.00;100962.84;5053509;28;20352;-36
2023/07/30 03:22:13;;;;;;;;;;;;;;;15.29;100.00;100969.72;5054353;28;20049;-36
2023/07/30 03:24:38;;;;;;;15.30;5.45;;;;;;;15.17;100.00;100967.97;5053184;28;19999;-37
2023/07/30 03:27:04;;;;;;;8.48;4.20;;;;;;;15.24;100.00;100970.50;5053230;28;20055;-37
2023/07/30 03:29:29;;;;;;;;;;;;;;;15.32;100.00;100978.19;5054165;28;20032;-37
2023/07/30 03:31:54;;;;;;;14.87;4.63;;;;;;;15.26;100.00;100971.06;5053463;28;19944;-36
2023/07/30 03:34:20;;;;;;;10.23;4.03;;;;;;;15.33;100.00;100976.31;5053359;28;20263;-36
2023/07/30 03:36:45;;;;;;;;;;;;;;;15.36;100.00;100971.13;5053383;28;20029;-36
2023/07/30 03:39:10;;;;;;;10.15;3.85;;;;;;;15.15;100.00;100956.53;5053013;28;19909;-36
2023/07/30 03:41:36;;;;;;;;;;;;;;;15.34;100.00;100978.75;5053799;28;20385;-37
2023/07/30 03:44:01;;;;;;;10.93;4.25;;;;;;;15.24;100.00;100973.22;5053021;28;19908;-36
2023/07/30 03:46:27;;;;;;;11.95;3.85;;;;;;;15.17;100.00;100965.25;5056423;28;20097;-37
2023/07/30 03:48:52;;;;;;;;;;;;;;;15.33;100.00;100992.66;5057180;28;20033;-37
2023/07/30 03:51:17;;;;;;;13.30;4.00;;;;;;;15.23;100.00;100989.84;5056752;28;19905;-37
2023/07/30 03:53:43;;;;;;;11.75;4.15;;;;;;;15.24;100.00;100992.28;5056489;28;20267;-37
2023/07/30 03:56:08;;;;;;;;;;;;;;;15.30;100.00;100993.97;5057659;28;20117;-37
2023/07/30 03:58:33;;;;;;;11.07;3.87;;;;;;;15.25;100.00;100995.84;5056812;28;19913;-37
2023/07/30 04:00:58;;;;;;;;;;;;;;;15.34;100.00;100997.03;5055528;28;20313;-36
2023/07/30 04:03:24;;;;;;;14.23;3.83;;;;;;;15.28;100.00;100992.63;5056569;28;19950;-36
2023/07/30 04:05:49;;;;;;;13.70;4.80;;;;;;;15.25;100.00;100993.13;5057380;28;20260;-37
2023/07/30 04:08:15;;;;;;;;;;;;;;;15.34;100.00;100995.13;5056931;28;20067;-37
2023/07/30 04:10:41;;;;;;;11.40;4.00;;;;;;;15.27;100.00;100988.22;5056417;28;19904;-37
2023/07/30 04:13:07;;;;;;;;;;;;;;;15.33;100.00;100998.09;5056835;28;20112;-37
2023/07/30 04:15:33;;;;;;;14.35;4.65;;;;;;;15.26;100.00;100997.47;5056263;28;19909;-37
2023/07/30 04:17:58;;;;;;;13.30;4.90;;;;;;;15.23;100.00;100998.00;5056239;28;20082;-37
2023/07/30 04:20:23;;;;;;;;;;;;;;;15.33;100.00;101001.66;5056668;28;20040;-37
2023/07/30 04:22:49;;;;;;;8.50;3.78;;;;;;;15.27;100.00;101001.84;5057047;28;19931;-37
2023/07/30 04:25:14;;;;;;;;;;;;;;;15.33;100.00;101001.66;5056598;28;20024;-37
2023/07/30 04:27:39;;;;;;;12.07;4.20;;;;;;;15.28;100.00;101006.22;5056173;28;20004;-36
2023/07/30 04:30:05;;;;;;;10.38;3.55;;;;;;;15.23;100.00;100996.09;5056034;28;20770;-36
2023/07/30 04:32:31;;;;;;;;;;;;;;;15.35;100.00;101002.19;5056105;28;20053;-36
2023/07/30 04:34:56;;;;;;;14.45;4.03;;;;;;;15.32;100.00;101001.88;5056758;28;19952;-37
2023/07/30 04:37:21;;;;;;;;;;;;;;;15.39;100.00;101007.97;5056690;28;20498;-37
2023/07/30 04:39:47;;;;;;;8.53;3.70;;;;;;;15.34;100.00;101011.47;5055519;28;19909;-37
2023/07/30 04:42:13;;;;;;;;;;;;;;;15.38;100.00;101014.50;5056550;28;20259;-37
2023/07/30 04:44:38;;;;;;;8.55;3.65;;;;;;;15.32;100.00;101016.31;5055797;28;20233;-37
2023/07/30 04:47:04;;;;;;;11.15;3.65;;;;;;;15.28;100.00;101003.50;5055815;28;20082;-36
2023/07/30 04:49:29;;;;;;;;;;;;;;;15.39;100.00;101007.97;5056652;28;20025;-37
2023/07/30 04:51:54;;;;;;;12.50;3.63;;;;;;;15.34;100.00;100997.03;5055346;28;19909;-37
2023/07/30 04:54:20;;;;;;;;;;;;;;;15.45;100.00;101006.91;5056322;28;20270;-36
2023/07/30 04:56:45;;;;;;;11.43;4.00;;;;;;;15.43;100.00;101006.38;5055506;28;19904;-37
2023/07/30 04:59:10;;;;;;;12.02;4.35;;;;;;;15.36;100.00;100998.38;5055756;28;20739;-36
2023/07/30 05:01:35;;;;;;;;;;;;;;;15.54;100.00;101005.38;5056219;28;20025;-37
2023/07/30 05:04:01;;;;;;;11.87;3.60;;;;;;;15.51;100.00;101008.59;5055421;28;19908;-37
2023/07/30 05:06:26;;;;;;;11.45;3.95;;;;;;;15.49;100.00;101008.06;5056237;28;20270;-36
2023/07/30 05:08:51;;;;;;;;;;;;;;;15.63;100.00;101014.75;5055492;28;20109;-37
2023/07/30 05:11:17;;;;;;;15.13;4.88;;;;;;;15.50;100.00;101015.13;5055277;28;20359;-37
2023/07/30 05:13:42;;;;;;;;;;;;;;;15.65;100.00;101028.91;5055421;28;20028;-36
2023/07/30 05:16:07;;;;;;;10.50;3.60;;;;;;;15.59;100.00;101024.47;5054905;28;19962;-37
2023/07/30 05:18:32;;;;;;;;;;;;;;;15.64;100.00;101027.28;5055236;28;20294;-37
2023/07/30 05:20:58;;;;;;;11.60;3.90;;;;;;;15.55;100.00;101026.06;5055204;28;19924;-37
2023/07/30 05:23:23;;;;;;;;;;;;;;;15.64;100.00;101027.28;5055795;28;20031;-37
2023/07/30 05:25:49;;;;;;;15.05;4.50;;;;;;;15.57;100.00;101026.66;5055601;28;19913;-37
2023/07/30 05:28:14;;;;;;;;;;;;;;;15.62;100.00;101026.69;5055704;28;20028;-37
2023/07/30 05:30:39;;;;;;;18.43;5.40;;;;;;;15.50;100.00;101019.78;5054874;28;19908;-37
2023/07/30 05:33:05;;;;;;;16.00;4.97;;;;;;;15.51;100.00;101030.41;5054892;28;20350;-37
2023/07/30 05:35:30;;;;;;;;;;;;;;;15.60;100.00;101025.31;5055199;28;20031;-37
2023/07/30 05:37:56;;;;;;;11.90;4.15;;;;;;;15.58;100.00;101028.31;5054441;28;19916;-36
2023/07/30 05:40:21;;;;;;;;;;;;;;;15.66;100.00;101030.59;5055190;28;20024;-37
2023/07/30 05:42:47;;;;;;;13.90;4.60;;;;;;;15.62;100.00;101028.59;5054694;28;20312;-37
2023/07/30 05:45:12;;;;;;;;;;;;;;;15.71;100.00;101021.59;5055078;28;20090;-37
2023/07/30 05:47:38;;;;;;;15.38;5.15;;;;;;;15.65;100.00;101019.91;5054607;28;20268;-37
2023/07/30 05:50:03;;;;;;;;;;;;;;;15.76;100.00;101015.38;5054631;28;20075;-37
2023/07/30 05:52:29;;;;;;;11.60;4.55;;;;;;;15.70;100.00;101020.78;5055047;28;19905;-37
2023/07/30 05:54:54;;;;;;;;;;;;;;;15.79;100.00;101023.84;5054905;28;20025;-37
2023/07/30 05:57:19;;;;;;;14.60;5.27;;;;;;;15.68;100.00;101012.06;5054765;28;19907;-37
2023/07/30 05:59:44;;;;;;;12.65;4.53;;;;;;;15.80;100.00;101021.94;5054335;28;20292;-37
2023/07/30 06:02:10;;;;;;;;;;;;;;;15.91;100.00;101026.41;5055123;28;20029;-37
2023/07/30 06:04:35;;;;;;;11.80;5.00;;;;;;;15.90;100.00;101030.19;5054520;28;19951;-37
2023/07/30 06:07:01;;;;;;;;;;;;;;;15.97;100.00;101028.09;5054444;28;20028;-37
2023/07/30 06:09:27;;;;;;;14.80;5.10;;;;;;;15.84;100.00;101025.78;5053677;28;19904;-37
2023/07/30 06:11:52;;;;;;;14.77;5.50;;;;;;;15.92;100.00;101028.88;5054464;28;20079;-37
2023/07/30 06:14:17;;;;;;;;;;;;;;;16.01;100.00;101040.13;5054530;28;20361;-37
2023/07/30 06:16:43;;;;;;;17.40;5.17;;;;;;;15.94;100.00;101036.78;5054351;28;20311;-37
2023/07/30 06:19:08;;;;;;;;;;;;;;;16.07;100.00;101033.59;5054323;28;20388;-38
2023/07/30 06:21:34;;;;;;;14.95;5.53;;;;;;;16.05;100.00;101032.22;5054284;28;19908;-37
2023/07/30 06:23:59;;;;;;;;;;;;;;;16.13;100.00;101031.72;5054345;28;20017;-38
2023/07/30 06:26:24;;;;;;;14.73;5.43;;;;;;;15.97;100.00;101025.34;5053715;28;19908;-37
2023/07/30 06:28:50;;;;;;;12.30;4.72;;;;;;;16.04;100.00;101031.38;5053629;28;20354;-38
2023/07/30 06:31:15;;;;;;;;;;;;;;;16.15;100.00;101033.13;5053995;28;20032;-37
2023/07/30 06:33:40;;;;;;;17.20;5.13;;;;;;;16.08;100.00;101032.50;5053544;28;19916;-37
2023/07/30 06:36:05;;;;;;;;;;;;;;;16.18;100.00;101029.03;5054200;28;20338;-38
2023/07/30 06:38:31;;;;;;;16.57;4.83;;;;;;;16.10;100.00;101018.59;5053573;28;19915;-38
2023/07/30 06:40:57;;;;;;;;;;;;;;;16.24;100.00;101038.88;5053896;28;20294;-38
2023/07/30 06:43:23;;;;;;;17.95;5.22;;;;;;;16.20;100.00;101038.59;5053543;28;19909;-38
2023/07/30 06:45:49;;;;;;;13.85;5.13;;;;;;;16.22;100.00;101038.34;5053355;28;20465;-38
2023/07/30 06:48:15;;;;;;;;;;;;;;;16.32;100.00;101034.84;5053769;28;20029;-37
2023/07/30 06:50:41;;;;;;;13.70;4.50;;;;;;;16.32;100.00;101040.28;5053210;28;20249;-37
2023/07/30 06:53:06;;;;;;;;;;;;;;;16.44;100.00;101036.25;5053943;28;20051;-38
2023/07/30 06:55:32;;;;;;;11.80;4.13;;;;;;;16.44;100.00;101033.53;5051957;28;20260;-38
2023/07/30 06:57:57;;;;;;;;;;;;;;;16.53;100.00;101039.31;5053787;28;20136;-38
2023/07/30 07:00:22;;;;;;;16.97;4.93;;;;;;;16.51;100.00;101038.75;5052846;28;19913;-38
2023/07/30 07:02:48;;;;;;;;;;;;;;;16.66;100.00;101035.28;5053822;28;20283;-38
2023/07/30 07:05:14;;;;;;;18.75;4.93;;;;;;;16.67;100.00;101034.19;5053201;28;19932;-38
2023/07/30 07:07:40;;;;;;;15.63;4.50;;;;;;;16.75;100.00;101036.44;5053839;28;20028;-38
2023/07/30 07:10:05;;;;;;;;;;;;;;;16.87;100.00;101042.47;5053501;28;20462;-38
2023/07/30 07:12:31;;;;;;;16.30;4.22;;;;;;;16.81;100.00;101040.00;5052777;28;19916;-38
2023/07/30 07:14:58;;;;;;;;;;;;;;;16.99;100.00;101043.06;5053380;28;20163;-38
2023/07/30 07:17:24;;;;;;;18.20;4.93;;;;;;;17.02;100.00;101049.09;5053335;28;20308;-38
2023/07/30 07:19:50;;;;;;;14.30;4.50;;;;;;;17.09;100.00;101053.22;5053512;28;20293;-38
2023/07/30 07:22:17;;;;;;;;;;;;;;;17.23;100.00;101056.25;5057472;28;20419;-37
2023/07/30 07:24:42;;;;;;;18.95;4.63;;;;;;;17.04;100.00;101044.19;5056976;28;19908;-37
2023/07/30 07:27:08;;;;;;;;;;;;;;;17.14;100.00;101049.69;5057714;28;20356;-38
2023/07/30 07:29:33;;;;;;;14.85;4.22;;;;;;;17.01;100.00;101031.88;5056586;28;19904;-38
2023/07/30 07:31:58;;;;;;;;;;;;;;;17.10;100.00;101041.19;5057315;28;20024;-38
2023/07/30 07:34:24;;;;;;;18.67;5.63;;;;;;;17.16;100.00;101042.00;5056629;28;19954;-38
2023/07/30 07:36:49;;;;;;;;;;;;;;;17.31;100.00;101038.50;5057127;28;20060;-38
2023/07/30 07:39:14;;;;;;;11.07;3.30;;;;;;;17.28;100.00;101037.13;5056338;28;19909;-38
2023/07/30 07:41:39;;;;;;;;;;;;;;;17.39;100.00;101046.16;5057674;28;20032;-38
2023/07/30 07:44:05;;;;;;;15.60;3.60;;;;;;;17.27;100.00;101054.59;5056597;28;19906;-38
2023/07/30 07:46:30;;;;;;;;;;;;;;;17.33;100.00;101063.66;5057647;28;20485;-38
2023/07/30 07:48:55;;;;;;;18.27;4.13;;;;;;;17.16;100.00;101067.44;5056839;28;19905;-38
2023/07/30 07:51:20;;;;;;;;;;;;;;;17.22;100.00;101060.88;5057693;28;20260;-37
2023/07/30 07:53:46;;;;;;;10.23;3.10;;;;;;;17.14;100.00;101071.53;5056777;28;19928;-37
2023/07/30 07:56:11;;;;;;;;;;;;;;;17.23;100.00;101061.72;5057493;28;20259;-38
2023/07/30 07:58:37;;;;;;;13.32;3.28;;;;;;;17.18;100.00;101067.19;5056827;28;19924;-38
2023/07/30 08:01:02;;;;;;;;;;;;;;;17.28;100.00;101067.19;5057672;28;20029;-38
2023/07/30 08:03:28;;;;;;;14.63;3.47;;;;;;;17.27;100.00;101071.00;5056624;28;19904;-37
2023/07/30 08:05:53;;;;;;;;;;;;;;;17.38;100.00;101060.94;5057511;28;20283;-38
2023/07/30 08:08:18;;;;;;;14.32;3.47;;;;;;;17.35;100.00;101066.94;5056799;28;19911;-38
2023/07/30 08:10:46;;;;;;;;;;;;;;;17.47;100.00;101062.00;5056804;28;20025;-38
2023/07/30 08:13:11;;;;;;;12.77;3.53;;;;;;;17.43;100.00;101075.41;5056354;28;19905;-38
2023/07/30 08:15:36;;;;;;;;;;;;;;;17.55;100.00;101072.41;5057607;28;20031;-36
2023/07/30 08:18:02;;;;;;;17.70;4.03;;;;;;;17.55;100.00;101066.13;5056213;28;19909;-37
2023/07/30 08:20:27;;;;;;;;;;;;;;;17.65;100.00;101082.53;5056596;28;20067;-38
2023/07/30 08:22:53;;;;;;;14.40;3.35;;;;;;;17.60;100.00;101077.06;5056438;28;19915;-36
2023/07/30 08:25:18;;;;;;;;;;;;;;;17.79;100.00;101082.88;5056576;28;20512;-36
2023/07/30 08:27:43;;;;;;;16.55;4.18;;;;;;;17.88;100.00;101073.00;5056316;28;19912;-37
2023/07/30 08:30:09;;;;;;;;;;;;;;;17.98;100.00;101071.09;5056491;28;20029;-37
2023/07/30 08:32:34;;;;;;;11.25;3.10;;;;;;;17.89;100.00;101077.38;5055798;28;20299;-37
2023/07/30 08:35:00;;;;;;;;;;;;;;;17.92;100.00;101077.66;5056389;28;20017;-37
2023/07/30 08:37:25;;;;;;;9.90;2.70;;;;;;;17.73;100.00;101066.44;5056219;28;19956;-37
2023/07/30 08:39:51;;;;;;;;;;;;;;;17.78;100.00;101068.38;5056707;28;20025;-37
2023/07/30 08:42:17;;;;;;;15.15;3.75;;;;;;;17.62;100.00;101067.53;5055540;28;19944;-37
2023/07/30 08:44:42;;;;;;;;;;;;;;;17.71;100.00;101068.63;5056701;28;20099;-37
2023/07/30 08:47:07;;;;;;;15.67;3.97;;;;;;;17.55;100.00;101080.63;5055484;28;20011;-37
2023/07/30 08:49:33;;;;;;;;;;;;;;;17.61;100.00;101082.25;5055791;28;20314;-37
2023/07/30 08:51:59;;;;;;;12.05;3.05;;;;;;;17.54;100.00;101076.25;5055957;28;19915;-37
2023/07/30 08:54:27;;;;;;;13.77;2.92;;;;;;;17.62;100.00;101081.19;5055644;28;20111;-36
2023/07/30 08:56:53;;;;;;;11.20;2.92;;;;;;;17.63;100.00;101080.09;5055352;28;20032;-37
2023/07/30 08:59:20;;;;;;;;;;;;;;;17.77;100.00;101079.59;5056119;28;20053;-37
2023/07/30 09:01:49;;;;;;;11.15;3.13;;;;;;;17.72;100.00;101072.16;5056093;28;19912;-37
2023/07/30 09:04:17;;;;;;;13.05;3.33;;;;;;;17.73;100.00;101063.72;5055399;28;20036;-37
2023/07/30 09:06:43;;;;;;;12.15;3.22;;;;;;;17.87;100.00;101085.06;5056288;28;20365;-37
2023/07/30 09:09:10;;;;;;;;;;;;;;;18.01;100.00;101080.69;5056300;28;20025;-37
2023/07/30 09:11:35;;;;;;;11.77;2.85;;;;;;;17.98;100.00;101082.03;5055575;28;19909;-37
2023/07/30 09:14:02;;;;;;;;;;;;;;;18.19;100.00;101087.47;5054421;28;20051;-38
2023/07/30 09:16:28;;;;;;;9.15;2.78;;;;;;;18.36;100.00;101076.25;5054879;28;19948;-37
2023/07/30 09:18:54;;;;;;;;;;;;;;;18.59;100.00;101078.34;5055658;28;20056;-37
2023/07/30 09:21:33;;;;;;;9.88;2.60;;;;;;;18.69;100.00;101085.75;5054967;28;19917;-38
2023/07/30 09:24:05;;;;;;;11.65;2.80;;;;;;;18.78;100.00;101079.41;5055045;28;20025;-38
2023/07/30 09:26:45;;;;;;;10.05;2.67;;;;;;;18.96;100.00;101079.91;5055053;28;20021;-37
2023/07/30 09:29:11;;;;;;;10.32;2.55;;;;;;;19.15;100.00;101067.19;5054651;28;20029;-37
2023/07/30 09:32:03;;;;;;;;;;;;;;;19.41;100.00;101081.53;5054622;28;20021;-37
2023/07/30 09:34:30;;;;;;;9.63;2.63;;;;;;;19.47;100.00;101082.31;5053617;28;20027;-37
2023/07/30 09:36:55;;;;;;;12.60;3.25;;;;;;;19.48;100.00;101071.09;5054775;28;20028;-37
2023/07/30 09:39:22;;;;;;;;;;;;;;;19.66;100.00;101061.38;5054684;28;20369;-37
2023/07/30 09:41:49;;;;;;;7.65;2.05;;;;;;;19.53;99.68;101067.50;5034738;28;19909;-37
2023/07/30 09:44:18;;;;;;;8.40;3.20;;;;;;;19.36;98.95;101062.38;5046854;28;20396;-37
2023/07/30 09:46:45;;;;;;;9.73;2.58;;;;;;;19.12;100.00;101064.19;5053720;28;20461;-38
2023/07/30 09:49:11;;;;;;;8.18;2.70;;;;;;;18.97;100.00;101073.31;5054201;28;20078;-37
2023/07/30 09:51:39;;;;;;;;;;;;;;;19.00;100.00;101094.69;5054011;28;20029;-37
2023/07/30 09:54:11;;;;;;;9.93;2.58;;;;;;;18.71;100.00;101089.84;5053838;28;19912;-38
2023/07/30 09:56:37;;;;;;;8.60;2.50;;;;;;;18.56;100.00;101089.06;5053912;28;20028;-37
2023/07/30 09:59:08;;;;;;;8.65;2.65;;;;;;;18.51;100.00;101084.41;5054065;28;20060;-37
2023/07/30 10:01:38;;;;;;;9.68;2.60;;;;;;;18.49;100.00;101089.34;5053999;28;20099;-37
2023/07/30 10:04:08;;;;;;;9.35;2.80;;;;;;;18.39;100.00;101092.09;5053825;28;20131;-37
2023/07/30 10:06:49;;;;;;;9.20;2.10;;;;;;;18.36;100.00;101115.38;5054163;28;20099;-37
2023/07/30 10:09:17;;;;;;;7.68;2.22;;;;;;;18.02;100.00;101112.41;5054230;28;20107;-37
2023/07/30 10:11:45;;;;;;;4.97;1.95;;;;;;;17.66;100.00;101115.06;5053492;28;20059;-37
2023/07/30 10:14:12;;;;;;;7.60;2.03;;;;;;;17.31;100.00;101121.31;5042370;28;20024;-37
2023/07/30 10:16:37;;;;;;;4.10;1.67;;;;;;;17.12;100.00;101123.69;5054262;28;20450;-37
2023/07/30 10:19:02;;;;;;;;;;;;;;;17.23;100.00;101127.31;5053901;28;20093;-37
2023/07/30 10:21:31;;;;;;;8.07;2.45;;;;;;;16.91;100.00;101121.97;5053940;28;20002;-38
2023/07/30 10:24:04;;;;;;;5.60;2.03;;;;;;;16.79;100.00;101130.41;5053919;28;20029;-38
2023/07/30 10:26:32;;;;;;;6.40;2.00;;;;;;;16.75;100.00;101161.25;5054509;28;20471;-37
2023/07/30 10:29:10;;;;;;;6.38;2.30;;;;;;;16.63;100.00;101143.09;5054361;28;20024;-38
2023/07/30 10:31:40;;;;;;;5.93;2.15;;;;;;;16.58;100.00;101145.78;5054374;28;20032;-38
2023/07/30 10:34:10;;;;;;;4.75;1.55;;;;;;;16.55;100.00;101140.88;5053759;28;20396;-38
2023/07/30 10:36:45;;;;;;;5.55;1.90;;;;;;;16.51;100.00;101142.50;5054638;28;20021;-37
2023/07/30 10:39:19;;;;;;;6.50;1.70;;;;;;;16.58;100.00;101144.97;5053403;28;20020;-38
2023/07/30 10:41:46;;;;;;;7.40;1.95;;;;;;;16.44;100.00;101129.06;5053667;28;20372;-38
2023/07/30 10:44:26;;;;;;;4.70;1.50;;;;;;;16.69;100.00;101150.25;5054425;28;20025;-37
2023/07/30 10:46:56;;;;;;;5.43;1.77;;;;;;;16.89;100.00;101156.94;5053713;28;20032;-37
2023/07/30 10:49:22;;;;;;;4.35;1.67;;;;;;;17.13;100.00;101141.75;5053856;28;20025;-38
2023/07/30 10:51:47;;;;;;;;;;;;;;;17.39;100.00;101150.03;5054857;28;20044;-37
2023/07/30 10:54:13;;;;;;;6.88;1.85;;;;;;;17.40;100.00;101148.94;5053376;28;19908;-37
2023/07/30 10:56:38;;;;;;;;;;;;;;;17.50;100.00;101147.03;5054764;28;20036;-37
2023/07/30 10:59:08;;;;;;;5.65;2.20;;;;;;;17.61;100.00;101150.63;5053236;28;20436;-37
2023/07/30 11:01:42;;;;;;;10.65;2.40;;;;;;;17.95;100.00;101144.69;5053391;28;20036;-37
2023/07/30 11:04:10;;;;;;;8.18;2.53;;;;;;;18.19;100.00;101143.03;5053066;28;20108;-37
2023/07/30 11:06:36;;;;;;;7.38;2.15;;;;;;;18.47;100.00;101149.03;5054182;28;20131;-37
2023/07/30 11:09:01;;;;;;;;;;;;;;;18.82;100.00;101147.34;5053805;28;20059;-37
2023/07/30 11:11:26;;;;;;;6.40;1.87;;;;;;;19.06;100.00;101145.63;5053383;28;19904;-37
2023/07/30 11:13:52;;;;;;;;;;;;;;;19.33;100.00;101147.16;5054571;28;20271;-37
2023/07/30 11:16:17;;;;;;;11.23;2.90;;;;;;;19.56;100.00;101143.72;5052967;28;20234;-37
2023/07/30 11:18:43;;;;;;;6.72;2.03;;;;;;;19.68;100.00;101130.50;5053211;28;20029;-37
2023/07/30 11:21:11;;;;;;;8.98;2.50;;;;;;;19.94;100.00;101130.31;5054039;28;20024;-37
2023/07/30 11:23:38;;;;;;;6.28;1.85;;;;;;;20.16;100.00;101138.09;5053189;28;20032;-37
2023/07/30 11:26:06;;;;;;;5.63;2.08;;;;;;;20.30;100.00;101137.16;5053778;28;20021;-37
2023/07/30 11:28:33;;;;;;;6.45;1.92;;;;;;;20.49;100.00;101125.44;5053142;28;20040;-37
2023/07/30 11:31:01;;;;;;;7.03;1.88;;;;;;;20.51;100.00;101121.31;5052875;28;20461;-37